Current Weather Conditions: station 64046

sailwx.info

Wind from 260 at 29 knots gusting 40

Wave height 6.6 meters (21 feet), 9 second period

Air temperature 6.1° C
Dewpoint 3.7° C

Last reported at 2019-Dec-11 16:00 UTC.
Time now 2019-Dec-11 17:15 UTC

Location: N 60°30' W 004°12'.
View on Google Maps.

See reports from other nearby stations

  
Tides and Currents Weather Stations Pressure Air Temp Water Temp Dewpoint Dewpoint Depression Visibility Wind Speed Wind Dir Waves Ship Positions
date/time (UTC)wind fromknots sea level pressurealtimeterstation pressurevisibilityair tempwater tempwave heightnotes
2019-Dec-11 16:00 260 29 gusting 40 6.1 6.6
2019-Dec-11 15:00 250 34 gusting 45 5.5 8.7
2019-Dec-11 14:00 240 34 gusting 48 6.8 8.1
2019-Dec-11 13:00 220 35 gusting 47 6.6 8.1
2019-Dec-11 12:00 230 38 gusting 48 5.6 9.9
2019-Dec-11 11:00 220 39 gusting 49 7.0 7.3
2019-Dec-11 10:00 230 35 gusting 47 7.2 8.3
2019-Dec-11 08:00 230 32 gusting 44 7.4 8.3
2019-Dec-11 07:00 230 29 gusting 41 7.9 7.4
2019-Dec-11 06:00 230 39 gusting 51 7.6 6.7
2019-Dec-11 05:00 240 36 gusting 47 7.4 6.9
2019-Dec-11 04:00 250 35 gusting 51 7.7 6.2
2019-Dec-11 03:00 240 35 gusting 47 7.4 6.7
2019-Dec-11 02:00 250 35 gusting 46 7.5 5.9
2019-Dec-11 01:00 250 28 gusting 38 6.9 5.3
2019-Dec-11 00:00 250 34 gusting 44 8.2 6.4
2019-Dec-10 23:00 260 32 gusting 41 8.4 6.0
2019-Dec-10 22:00 270 29 gusting 39 7.7 5.9
2019-Dec-10 21:00 260 31 gusting 40 7.1 4.8
2019-Dec-10 20:00 240 28 gusting 36 7.2 5.7
2019-Dec-10 19:00 230 29 gusting 35 8.1 5.7
2019-Dec-10 18:00 240 29 gusting 38 7.8 5.4
2019-Dec-10 17:00 250 29 gusting 44 7.6 5.3
2019-Dec-10 16:00 260 27 gusting 41 7.4 6.3
2019-Dec-10 15:00 270 26 gusting 36 7.8 6.1
2019-Dec-10 14:00 220 29 gusting 47 10.6 6.7
2019-Dec-10 13:00 190 28 gusting 39 9.9 7.0
2019-Dec-10 12:00 180 32 gusting 38 9.5 6.0
2019-Dec-10 11:00 180 34 gusting 42 9.1 5.4
2019-Dec-10 10:00 180 34 gusting 42 8.8 5.8
2019-Dec-10 09:00 180 34 gusting 42 8.5 6.1
2019-Dec-10 08:00 180 36 gusting 48 8.5 5.6
2019-Dec-10 07:00 180 36 gusting 46 8.4 5.3
2019-Dec-10 06:00 170 35 gusting 47 8.3 4.6
2019-Dec-10 05:00 170 31 gusting 39 8.3 4.9
2019-Dec-10 04:00 180 29 gusting 35 8.3 5.1
2019-Dec-10 03:00 180 32 gusting 40 8.1 4.1
2019-Dec-10 02:00 180 31 gusting 38 7.7 4.5
2019-Dec-10 01:00 180 29 gusting 40 7.6 4.3
2019-Dec-10 00:00 170 31 gusting 36 6.1 4.5
2019-Dec-09 23:00 180 31 gusting 38 5.5 4.4
2019-Dec-09 22:00 180 26 gusting 34 5.8 4.9
2019-Dec-09 21:00 180 25 gusting 32 6.3 4.1
2019-Dec-09 20:00 170 19 gusting 25 6.2 4.8
2019-Dec-09 19:00 190 13 5.8 5.3
2019-Dec-09 18:00 180 8 5.2 4.6
2019-Dec-09 17:00 240 5 5.0 5.8